sensor_id;sensor_type;location;lat;lon;timestamp;P1;durP1;ratioP1;P2;durP2;ratioP2
9904;SDS011;4991;43.566;27.820;2022-09-12T00:01:03;3.30;;;1.50;;
9904;SDS011;4991;43.566;27.820;2022-09-12T00:03:31;2.83;;;1.50;;
9904;SDS011;4991;43.566;27.820;2022-09-12T00:05:56;2.33;;;1.50;;
9904;SDS011;4991;43.566;27.820;2022-09-12T00:08:22;2.80;;;1.57;;
9904;SDS011;4991;43.566;27.820;2022-09-12T00:10:48;5.87;;;1.90;;
9904;SDS011;4991;43.566;27.820;2022-09-12T00:13:13;2.20;;;1.50;;
9904;SDS011;4991;43.566;27.820;2022-09-12T00:15:43;3.60;;;1.60;;
9904;SDS011;4991;43.566;27.820;2022-09-12T00:18:14;3.00;;;1.50;;
9904;SDS011;4991;43.566;27.820;2022-09-12T00:20:43;4.40;;;1.50;;
9904;SDS011;4991;43.566;27.820;2022-09-12T00:23:10;3.50;;;1.43;;
9904;SDS011;4991;43.566;27.820;2022-09-12T00:25:43;4.60;;;1.80;;
9904;SDS011;4991;43.566;27.820;2022-09-12T00:28:10;1.83;;;1.33;;
9904;SDS011;4991;43.566;27.820;2022-09-12T00:30:40;3.27;;;1.70;;
9904;SDS011;4991;43.566;27.820;2022-09-12T00:33:06;2.83;;;1.53;;
9904;SDS011;4991;43.566;27.820;2022-09-12T00:35:32;3.23;;;1.80;;
9904;SDS011;4991;43.566;27.820;2022-09-12T00:37:58;2.67;;;1.63;;
9904;SDS011;4991;43.566;27.820;2022-09-12T00:40:23;2.53;;;1.43;;
9904;SDS011;4991;43.566;27.820;2022-09-12T00:42:49;2.80;;;1.47;;
9904;SDS011;4991;43.566;27.820;2022-09-12T00:45:25;1.63;;;1.27;;
9904;SDS011;4991;43.566;27.820;2022-09-12T00:47:54;2.77;;;1.67;;
9904;SDS011;4991;43.566;27.820;2022-09-12T00:50:22;1.67;;;1.33;;
9904;SDS011;4991;43.566;27.820;2022-09-12T00:52:53;4.93;;;1.47;;
9904;SDS011;4991;43.566;27.820;2022-09-12T00:55:42;2.27;;;1.40;;
9904;SDS011;4991;43.566;27.820;2022-09-12T00:58:20;2.80;;;1.20;;
9904;SDS011;4991;43.566;27.820;2022-09-12T01:00:48;1.97;;;1.20;;
9904;SDS011;4991;43.566;27.820;2022-09-12T01:03:16;1.50;;;1.40;;
9904;SDS011;4991;43.566;27.820;2022-09-12T01:05:49;3.20;;;1.33;;
9904;SDS011;4991;43.566;27.820;2022-09-12T01:08:21;2.07;;;1.30;;
9904;SDS011;4991;43.566;27.820;2022-09-12T01:10:49;1.60;;;1.50;;
9904;SDS011;4991;43.566;27.820;2022-09-12T01:13:15;2.90;;;1.50;;
9904;SDS011;4991;43.566;27.820;2022-09-12T01:15:40;2.87;;;1.23;;
9904;SDS011;4991;43.566;27.820;2022-09-12T01:21:10;1.60;;;1.50;;
9904;SDS011;4991;43.566;27.820;2022-09-12T01:24:05;2.10;;;1.30;;
9904;SDS011;4991;43.566;27.820;2022-09-12T01:35:34;1.30;;;1.20;;
9904;SDS011;4991;43.566;27.820;2022-09-12T01:38:09;2.40;;;1.23;;
9904;SDS011;4991;43.566;27.820;2022-09-12T01:40:49;1.67;;;1.40;;
9904;SDS011;4991;43.566;27.820;2022-09-12T01:49:10;1.87;;;1.30;;
9904;SDS011;4991;43.566;27.820;2022-09-12T01:52:03;1.97;;;1.43;;
9904;SDS011;4991;43.566;27.820;2022-09-12T01:54:36;2.23;;;1.40;;
9904;SDS011;4991;43.566;27.820;2022-09-12T01:57:17;2.67;;;1.60;;
9904;SDS011;4991;43.566;27.820;2022-09-12T01:59:51;2.13;;;1.60;;
9904;SDS011;4991;43.566;27.820;2022-09-12T02:02:26;2.30;;;1.50;;
9904;SDS011;4991;43.566;27.820;2022-09-12T02:10:03;2.87;;;2.00;;
9904;SDS011;4991;43.566;27.820;2022-09-12T02:12:36;2.57;;;1.87;;
9904;SDS011;4991;43.566;27.820;2022-09-12T02:15:15;3.13;;;1.97;;
9904;SDS011;4991;43.566;27.820;2022-09-12T02:17:46;1.97;;;1.70;;
9904;SDS011;4991;43.566;27.820;2022-09-12T02:22:45;3.67;;;2.07;;
9904;SDS011;4991;43.566;27.820;2022-09-12T02:25:14;2.20;;;1.93;;
9904;SDS011;4991;43.566;27.820;2022-09-12T02:30:33;2.30;;;1.93;;
9904;SDS011;4991;43.566;27.820;2022-09-12T02:36:02;2.27;;;2.07;;
9904;SDS011;4991;43.566;27.820;2022-09-12T02:38:43;3.20;;;2.10;;
9904;SDS011;4991;43.566;27.820;2022-09-12T02:41:12;1.87;;;1.73;;
9904;SDS011;4991;43.566;27.820;2022-09-12T02:43:41;3.90;;;2.23;;
9904;SDS011;4991;43.566;27.820;2022-09-12T02:46:08;4.60;;;2.30;;
9904;SDS011;4991;43.566;27.820;2022-09-12T02:48:38;4.13;;;1.83;;
9904;SDS011;4991;43.566;27.820;2022-09-12T02:51:07;2.23;;;1.90;;
9904;SDS011;4991;43.566;27.820;2022-09-12T02:53:34;3.57;;;2.03;;
9904;SDS011;4991;43.566;27.820;2022-09-12T02:56:00;3.07;;;2.03;;
9904;SDS011;4991;43.566;27.820;2022-09-12T02:58:27;4.27;;;2.37;;
9904;SDS011;4991;43.566;27.820;2022-09-12T03:03:37;3.03;;;2.10;;
9904;SDS011;4991;43.566;27.820;2022-09-12T03:06:46;2.33;;;1.57;;
9904;SDS011;4991;43.566;27.820;2022-09-12T03:09:35;2.00;;;1.80;;
9904;SDS011;4991;43.566;27.820;2022-09-12T03:12:06;3.07;;;1.87;;
9904;SDS011;4991;43.566;27.820;2022-09-12T03:25:00;2.40;;;1.80;;
9904;SDS011;4991;43.566;27.820;2022-09-12T03:27:45;2.77;;;1.80;;
9904;SDS011;4991;43.566;27.820;2022-09-12T03:30:16;3.07;;;1.70;;
9904;SDS011;4991;43.566;27.820;2022-09-12T03:32:42;2.00;;;1.67;;
9904;SDS011;4991;43.566;27.820;2022-09-12T03:35:10;2.83;;;1.70;;
9904;SDS011;4991;43.566;27.820;2022-09-12T03:37:37;2.07;;;1.53;;
9904;SDS011;4991;43.566;27.820;2022-09-12T03:40:04;2.93;;;1.53;;
9904;SDS011;4991;43.566;27.820;2022-09-12T03:42:30;1.90;;;1.50;;
9904;SDS011;4991;43.566;27.820;2022-09-12T03:44:56;1.63;;;1.40;;
9904;SDS011;4991;43.566;27.820;2022-09-12T03:47:22;2.03;;;1.80;;
9904;SDS011;4991;43.566;27.820;2022-09-12T03:49:49;1.63;;;1.30;;
9904;SDS011;4991;43.566;27.820;2022-09-12T03:52:14;2.93;;;1.83;;
9904;SDS011;4991;43.566;27.820;2022-09-12T03:54:40;2.13;;;1.57;;
9904;SDS011;4991;43.566;27.820;2022-09-12T03:57:05;1.63;;;1.33;;
9904;SDS011;4991;43.566;27.820;2022-09-12T03:59:31;2.90;;;1.27;;
9904;SDS011;4991;43.566;27.820;2022-09-12T04:01:57;3.73;;;1.40;;
9904;SDS011;4991;43.566;27.820;2022-09-12T04:04:22;1.90;;;1.60;;
9904;SDS011;4991;43.566;27.820;2022-09-12T04:06:48;3.40;;;1.90;;
9904;SDS011;4991;43.566;27.820;2022-09-12T04:09:13;3.07;;;1.60;;
9904;SDS011;4991;43.566;27.820;2022-09-12T04:11:39;2.43;;;1.30;;
9904;SDS011;4991;43.566;27.820;2022-09-12T04:14:05;1.93;;;1.30;;
9904;SDS011;4991;43.566;27.820;2022-09-12T04:16:30;1.73;;;1.17;;
9904;SDS011;4991;43.566;27.820;2022-09-12T04:18:57;4.00;;;1.50;;
9904;SDS011;4991;43.566;27.820;2022-09-12T04:21:22;2.23;;;1.20;;
9904;SDS011;4991;43.566;27.820;2022-09-12T04:23:49;2.73;;;1.33;;
9904;SDS011;4991;43.566;27.820;2022-09-12T04:26:16;2.30;;;1.20;;
9904;SDS011;4991;43.566;27.820;2022-09-12T04:28:43;1.87;;;1.50;;
9904;SDS011;4991;43.566;27.820;2022-09-12T04:31:11;5.10;;;1.60;;
9904;SDS011;4991;43.566;27.820;2022-09-12T04:33:40;1.70;;;1.30;;
9904;SDS011;4991;43.566;27.820;2022-09-12T04:36:07;2.97;;;1.30;;
9904;SDS011;4991;43.566;27.820;2022-09-12T04:38:35;1.60;;;1.50;;
9904;SDS011;4991;43.566;27.820;2022-09-12T04:41:14;2.23;;;1.80;;
9904;SDS011;4991;43.566;27.820;2022-09-12T04:43:43;1.63;;;1.50;;
9904;SDS011;4991;43.566;27.820;2022-09-12T04:46:15;1.87;;;1.40;;
9904;SDS011;4991;43.566;27.820;2022-09-12T04:48:44;1.90;;;1.40;;
9904;SDS011;4991;43.566;27.820;2022-09-12T04:51:11;1.70;;;1.33;;
9904;SDS011;4991;43.566;27.820;2022-09-12T04:53:38;4.77;;;1.90;;
9904;SDS011;4991;43.566;27.820;2022-09-12T04:56:07;2.70;;;2.03;;
9904;SDS011;4991;43.566;27.820;2022-09-12T04:58:34;3.03;;;1.80;;
9904;SDS011;4991;43.566;27.820;2022-09-12T05:01:07;4.03;;;1.53;;
9904;SDS011;4991;43.566;27.820;2022-09-12T05:03:33;1.20;;;1.10;;
9904;SDS011;4991;43.566;27.820;2022-09-12T05:06:03;2.73;;;1.40;;
9904;SDS011;4991;43.566;27.820;2022-09-12T05:08:33;2.03;;;1.37;;
9904;SDS011;4991;43.566;27.820;2022-09-12T05:11:12;2.73;;;1.60;;
9904;SDS011;4991;43.566;27.820;2022-09-12T05:13:42;1.40;;;1.20;;
9904;SDS011;4991;43.566;27.820;2022-09-12T05:16:09;2.37;;;1.33;;
9904;SDS011;4991;43.566;27.820;2022-09-12T05:18:36;2.90;;;1.40;;
9904;SDS011;4991;43.566;27.820;2022-09-12T05:21:03;2.47;;;1.73;;
9904;SDS011;4991;43.566;27.820;2022-09-12T05:23:30;2.57;;;1.30;;
9904;SDS011;4991;43.566;27.820;2022-09-12T05:25:59;2.70;;;1.60;;
9904;SDS011;4991;43.566;27.820;2022-09-12T05:28:30;2.97;;;1.60;;
9904;SDS011;4991;43.566;27.820;2022-09-12T05:31:02;5.30;;;1.67;;
9904;SDS011;4991;43.566;27.820;2022-09-12T05:33:28;3.13;;;1.60;;
9904;SDS011;4991;43.566;27.820;2022-09-12T05:35:55;2.87;;;1.80;;
9904;SDS011;4991;43.566;27.820;2022-09-12T05:38:20;3.37;;;1.47;;
9904;SDS011;4991;43.566;27.820;2022-09-12T05:40:47;1.90;;;1.33;;
9904;SDS011;4991;43.566;27.820;2022-09-12T05:43:13;4.60;;;1.60;;
9904;SDS011;4991;43.566;27.820;2022-09-12T05:45:39;2.00;;;1.50;;
9904;SDS011;4991;43.566;27.820;2022-09-12T05:48:06;1.93;;;1.30;;
9904;SDS011;4991;43.566;27.820;2022-09-12T05:50:31;3.40;;;1.50;;
9904;SDS011;4991;43.566;27.820;2022-09-12T05:52:57;3.37;;;1.37;;
9904;SDS011;4991;43.566;27.820;2022-09-12T05:55:23;1.70;;;1.60;;
9904;SDS011;4991;43.566;27.820;2022-09-12T05:57:49;1.83;;;1.57;;
9904;SDS011;4991;43.566;27.820;2022-09-12T06:00:15;1.87;;;1.40;;
9904;SDS011;4991;43.566;27.820;2022-09-12T06:02:43;1.83;;;1.50;;
9904;SDS011;4991;43.566;27.820;2022-09-12T06:05:09;3.03;;;1.43;;
9904;SDS011;4991;43.566;27.820;2022-09-12T06:07:35;2.97;;;1.30;;
9904;SDS011;4991;43.566;27.820;2022-09-12T06:10:01;1.27;;;1.17;;
9904;SDS011;4991;43.566;27.820;2022-09-12T06:12:28;3.50;;;1.30;;
9904;SDS011;4991;43.566;27.820;2022-09-12T06:14:54;1.43;;;1.30;;
9904;SDS011;4991;43.566;27.820;2022-09-12T06:17:20;3.30;;;1.73;;
9904;SDS011;4991;43.566;27.820;2022-09-12T06:19:46;5.43;;;1.80;;
9904;SDS011;4991;43.566;27.820;2022-09-12T06:22:13;3.90;;;1.43;;
9904;SDS011;4991;43.566;27.820;2022-09-12T06:24:39;1.40;;;1.30;;
9904;SDS011;4991;43.566;27.820;2022-09-12T06:27:05;2.00;;;1.43;;
9904;SDS011;4991;43.566;27.820;2022-09-12T06:29:31;2.33;;;1.73;;
9904;SDS011;4991;43.566;27.820;2022-09-12T06:31:59;2.47;;;1.60;;
9904;SDS011;4991;43.566;27.820;2022-09-12T06:34:25;2.27;;;1.40;;
9904;SDS011;4991;43.566;27.820;2022-09-12T06:36:52;4.13;;;1.60;;
9904;SDS011;4991;43.566;27.820;2022-09-12T06:39:19;3.17;;;1.80;;
9904;SDS011;4991;43.566;27.820;2022-09-12T06:41:46;2.90;;;1.93;;
9904;SDS011;4991;43.566;27.820;2022-09-12T06:44:17;1.70;;;1.60;;
9904;SDS011;4991;43.566;27.820;2022-09-12T06:46:44;5.53;;;1.70;;
9904;SDS011;4991;43.566;27.820;2022-09-12T06:49:10;3.83;;;1.93;;
9904;SDS011;4991;43.566;27.820;2022-09-12T06:51:36;2.17;;;1.90;;
9904;SDS011;4991;43.566;27.820;2022-09-12T06:54:02;2.73;;;1.37;;
9904;SDS011;4991;43.566;27.820;2022-09-12T06:56:28;2.20;;;1.83;;
9904;SDS011;4991;43.566;27.820;2022-09-12T06:58:54;2.13;;;1.60;;
9904;SDS011;4991;43.566;27.820;2022-09-12T07:03:49;2.30;;;1.30;;
9904;SDS011;4991;43.566;27.820;2022-09-12T07:06:17;5.40;;;1.90;;
9904;SDS011;4991;43.566;27.820;2022-09-12T07:08:44;3.93;;;1.77;;
9904;SDS011;4991;43.566;27.820;2022-09-12T07:11:13;1.60;;;1.50;;
9904;SDS011;4991;43.566;27.820;2022-09-12T07:13:39;2.63;;;1.50;;
9904;SDS011;4991;43.566;27.820;2022-09-12T07:16:06;4.80;;;1.53;;
9904;SDS011;4991;43.566;27.820;2022-09-12T07:18:33;3.57;;;1.77;;
9904;SDS011;4991;43.566;27.820;2022-09-12T07:21:00;2.17;;;1.60;;
9904;SDS011;4991;43.566;27.820;2022-09-12T07:23:27;6.13;;;1.60;;
9904;SDS011;4991;43.566;27.820;2022-09-12T07:25:57;3.17;;;1.63;;
9904;SDS011;4991;43.566;27.820;2022-09-12T07:28:24;1.80;;;1.33;;
9904;SDS011;4991;43.566;27.820;2022-09-12T07:30:51;1.70;;;1.33;;
9904;SDS011;4991;43.566;27.820;2022-09-12T07:33:21;3.63;;;1.73;;
9904;SDS011;4991;43.566;27.820;2022-09-12T07:35:48;1.90;;;1.43;;
9904;SDS011;4991;43.566;27.820;2022-09-12T07:38:17;1.70;;;1.60;;
9904;SDS011;4991;43.566;27.820;2022-09-12T07:40:43;2.47;;;1.60;;
9904;SDS011;4991;43.566;27.820;2022-09-12T07:43:08;3.03;;;1.50;;
9904;SDS011;4991;43.566;27.820;2022-09-12T07:45:34;2.03;;;1.37;;
9904;SDS011;4991;43.566;27.820;2022-09-12T07:47:59;3.27;;;1.37;;
9904;SDS011;4991;43.566;27.820;2022-09-12T07:50:25;2.53;;;1.50;;
9904;SDS011;4991;43.566;27.820;2022-09-12T07:52:54;4.70;;;1.30;;
9904;SDS011;4991;43.566;27.820;2022-09-12T07:55:20;2.03;;;1.40;;
9904;SDS011;4991;43.566;27.820;2022-09-12T07:57:49;4.93;;;1.50;;
9904;SDS011;4991;43.566;27.820;2022-09-12T08:00:16;4.07;;;1.47;;
9904;SDS011;4991;43.566;27.820;2022-09-12T08:02:42;2.70;;;1.47;;
9904;SDS011;4991;43.566;27.820;2022-09-12T08:05:08;2.43;;;1.40;;
9904;SDS011;4991;43.566;27.820;2022-09-12T08:07:34;2.20;;;1.30;;
9904;SDS011;4991;43.566;27.820;2022-09-12T08:10:00;3.20;;;1.30;;
9904;SDS011;4991;43.566;27.820;2022-09-12T08:12:29;3.43;;;1.30;;
9904;SDS011;4991;43.566;27.820;2022-09-12T08:14:56;2.40;;;1.20;;
9904;SDS011;4991;43.566;27.820;2022-09-12T08:17:22;2.40;;;1.20;;
9904;SDS011;4991;43.566;27.820;2022-09-12T08:19:47;2.33;;;1.13;;
9904;SDS011;4991;43.566;27.820;2022-09-12T08:22:13;4.23;;;1.30;;
9904;SDS011;4991;43.566;27.820;2022-09-12T08:24:40;2.07;;;1.20;;
9904;SDS011;4991;43.566;27.820;2022-09-12T08:27:07;1.40;;;1.20;;
9904;SDS011;4991;43.566;27.820;2022-09-12T08:29:33;1.47;;;1.07;;
9904;SDS011;4991;43.566;27.820;2022-09-12T08:31:59;1.53;;;1.10;;
9904;SDS011;4991;43.566;27.820;2022-09-12T08:34:25;1.53;;;1.20;;
9904;SDS011;4991;43.566;27.820;2022-09-12T08:36:51;1.83;;;1.27;;
9904;SDS011;4991;43.566;27.820;2022-09-12T08:39:19;1.30;;;1.20;;
9904;SDS011;4991;43.566;27.820;2022-09-12T08:41:47;1.90;;;1.40;;
9904;SDS011;4991;43.566;27.820;2022-09-12T08:44:27;2.10;;;1.13;;
9904;SDS011;4991;43.566;27.820;2022-09-12T08:52:32;1.37;;;1.27;;
9904;SDS011;4991;43.566;27.820;2022-09-12T08:55:08;1.20;;;1.05;;
9904;SDS011;4991;43.566;27.820;2022-09-12T08:57:49;1.97;;;1.40;;
9904;SDS011;4991;43.566;27.820;2022-09-12T09:00:16;4.50;;;1.30;;
9904;SDS011;4991;43.566;27.820;2022-09-12T09:08:46;1.50;;;1.10;;
9904;SDS011;4991;43.566;27.820;2022-09-12T09:14:04;1.48;;;1.27;;
9904;SDS011;4991;43.566;27.820;2022-09-12T09:16:58;2.75;;;1.08;;
9904;SDS011;4991;43.566;27.820;2022-09-12T09:22:03;2.72;;;1.38;;
9904;SDS011;4991;43.566;27.820;2022-09-12T09:24:44;1.65;;;1.15;;
9904;SDS011;4991;43.566;27.820;2022-09-12T09:27:25;1.95;;;1.23;;
9904;SDS011;4991;43.566;27.820;2022-09-12T09:30:16;5.13;;;1.70;;
9904;SDS011;4991;43.566;27.820;2022-09-12T09:32:44;2.67;;;1.10;;
9904;SDS011;4991;43.566;27.820;2022-09-12T09:37:42;1.10;;;1.00;;
9904;SDS011;4991;43.566;27.820;2022-09-12T09:43:20;1.15;;;1.08;;
9904;SDS011;4991;43.566;27.820;2022-09-12T09:45:48;4.50;;;1.17;;
9904;SDS011;4991;43.566;27.820;2022-09-12T09:48:34;2.13;;;1.40;;
9904;SDS011;4991;43.566;27.820;2022-09-12T09:51:03;2.13;;;1.27;;
9904;SDS011;4991;43.566;27.820;2022-09-12T09:56:07;1.10;;;1.00;;
9904;SDS011;4991;43.566;27.820;2022-09-12T09:58:37;3.60;;;1.30;;
9904;SDS011;4991;43.566;27.820;2022-09-12T10:01:04;2.05;;;1.25;;
9904;SDS011;4991;43.566;27.820;2022-09-12T10:03:37;2.15;;;1.13;;
9904;SDS011;4991;43.566;27.820;2022-09-12T10:06:07;1.92;;;1.20;;
9904;SDS011;4991;43.566;27.820;2022-09-12T10:09:06;2.13;;;1.38;;
9904;SDS011;4991;43.566;27.820;2022-09-12T10:11:43;3.55;;;1.20;;
9904;SDS011;4991;43.566;27.820;2022-09-12T10:14:55;2.67;;;1.10;;
9904;SDS011;4991;43.566;27.820;2022-09-12T10:17:20;0.93;;;0.90;;
9904;SDS011;4991;43.566;27.820;2022-09-12T10:19:46;1.30;;;1.00;;
9904;SDS011;4991;43.566;27.820;2022-09-12T10:22:16;1.73;;;1.27;;
9904;SDS011;4991;43.566;27.820;2022-09-12T10:24:47;1.42;;;1.08;;
9904;SDS011;4991;43.566;27.820;2022-09-12T10:27:29;2.92;;;0.98;;
9904;SDS011;4991;43.566;27.820;2022-09-12T10:30:00;1.55;;;1.17;;
9904;SDS011;4991;43.566;27.820;2022-09-12T10:32:36;1.17;;;1.05;;
9904;SDS011;4991;43.566;27.820;2022-09-12T10:35:06;2.33;;;1.33;;
9904;SDS011;4991;43.566;27.820;2022-09-12T10:37:48;6.38;;;1.40;;
9904;SDS011;4991;43.566;27.820;2022-09-12T10:43:17;3.72;;;1.50;;
9904;SDS011;4991;43.566;27.820;2022-09-12T10:45:57;1.70;;;1.15;;
9904;SDS011;4991;43.566;27.820;2022-09-12T10:48:26;2.58;;;1.25;;
9904;SDS011;4991;43.566;27.820;2022-09-12T10:50:52;1.77;;;1.27;;
9904;SDS011;4991;43.566;27.820;2022-09-12T10:53:19;2.63;;;1.17;;
9904;SDS011;4991;43.566;27.820;2022-09-12T11:06:31;1.67;;;1.05;;
9904;SDS011;4991;43.566;27.820;2022-09-12T11:09:18;2.35;;;1.10;;
9904;SDS011;4991;43.566;27.820;2022-09-12T11:19:42;3.03;;;1.00;;
9904;SDS011;4991;43.566;27.820;2022-09-12T11:25:26;1.38;;;1.25;;
9904;SDS011;4991;43.566;27.820;2022-09-12T11:33:43;3.13;;;1.30;;
9904;SDS011;4991;43.566;27.820;2022-09-12T11:36:14;1.20;;;0.98;;
9904;SDS011;4991;43.566;27.820;2022-09-12T11:38:51;4.03;;;1.25;;
9904;SDS011;4991;43.566;27.820;2022-09-12T11:41:39;1.73;;;1.10;;
9904;SDS011;4991;43.566;27.820;2022-09-12T11:44:25;3.20;;;0.93;;
9904;SDS011;4991;43.566;27.820;2022-09-12T11:46:57;2.28;;;1.30;;
9904;SDS011;4991;43.566;27.820;2022-09-12T11:49:27;3.03;;;1.20;;
9904;SDS011;4991;43.566;27.820;2022-09-12T11:54:35;4.57;;;1.13;;
9904;SDS011;4991;43.566;27.820;2022-09-12T12:00:05;2.55;;;1.20;;
9904;SDS011;4991;43.566;27.820;2022-09-12T12:07:58;1.63;;;1.13;;
9904;SDS011;4991;43.566;27.820;2022-09-12T12:18:57;2.45;;;1.00;;
9904;SDS011;4991;43.566;27.820;2022-09-12T12:21:31;1.40;;;0.90;;
9904;SDS011;4991;43.566;27.820;2022-09-12T12:32:37;2.55;;;1.00;;
9904;SDS011;4991;43.566;27.820;2022-09-12T12:34:33;3.08;;;1.00;;
9904;SDS011;4991;43.566;27.820;2022-09-12T12:44:59;1.67;;;0.73;;
9904;SDS011;4991;43.566;27.820;2022-09-12T12:47:27;2.75;;;1.15;;
9904;SDS011;4991;43.566;27.820;2022-09-12T12:50:05;1.55;;;1.00;;
9904;SDS011;4991;43.566;27.820;2022-09-12T12:52:39;1.00;;;0.90;;
9904;SDS011;4991;43.566;27.820;2022-09-12T12:55:14;1.20;;;1.02;;
9904;SDS011;4991;43.566;27.820;2022-09-12T12:57:47;2.13;;;1.00;;
9904;SDS011;4991;43.566;27.820;2022-09-12T13:05:23;1.13;;;0.88;;
9904;SDS011;4991;43.566;27.820;2022-09-12T13:08:10;1.13;;;0.90;;
9904;SDS011;4991;43.566;27.820;2022-09-12T13:11:14;1.75;;;0.90;;
9904;SDS011;4991;43.566;27.820;2022-09-12T13:14:01;1.70;;;0.85;;
9904;SDS011;4991;43.566;27.820;2022-09-12T13:16:39;6.22;;;1.20;;
9904;SDS011;4991;43.566;27.820;2022-09-12T13:19:27;1.20;;;0.80;;
9904;SDS011;4991;43.566;27.820;2022-09-12T13:22:01;0.85;;;0.80;;
9904;SDS011;4991;43.566;27.820;2022-09-12T13:24:32;1.42;;;0.80;;
9904;SDS011;4991;43.566;27.820;2022-09-12T13:26:58;1.33;;;1.02;;
9904;SDS011;4991;43.566;27.820;2022-09-12T13:29:25;0.80;;;0.80;;
9904;SDS011;4991;43.566;27.820;2022-09-12T13:31:53;1.35;;;1.13;;
9904;SDS011;4991;43.566;27.820;2022-09-12T13:34:23;2.28;;;1.13;;
9904;SDS011;4991;43.566;27.820;2022-09-12T13:42:35;2.40;;;1.13;;
9904;SDS011;4991;43.566;27.820;2022-09-12T13:47:43;2.38;;;1.50;;
9904;SDS011;4991;43.566;27.820;2022-09-12T13:50:15;1.10;;;1.00;;
9904;SDS011;4991;43.566;27.820;2022-09-12T13:52:47;1.55;;;0.90;;
9904;SDS011;4991;43.566;27.820;2022-09-12T13:55:27;2.28;;;1.00;;
9904;SDS011;4991;43.566;27.820;2022-09-12T13:57:59;1.52;;;0.95;;
9904;SDS011;4991;43.566;27.820;2022-09-12T14:00:27;5.53;;;1.30;;
9904;SDS011;4991;43.566;27.820;2022-09-12T14:02:54;1.52;;;1.20;;
9904;SDS011;4991;43.566;27.820;2022-09-12T14:05:40;1.23;;;0.98;;
9904;SDS011;4991;43.566;27.820;2022-09-12T14:08:11;1.67;;;1.20;;
9904;SDS011;4991;43.566;27.820;2022-09-12T14:10:42;1.58;;;1.00;;
9904;SDS011;4991;43.566;27.820;2022-09-12T14:13:14;1.90;;;1.10;;
9904;SDS011;4991;43.566;27.820;2022-09-12T14:15:44;1.00;;;0.90;;
9904;SDS011;4991;43.566;27.820;2022-09-12T14:18:28;1.40;;;1.30;;
9904;SDS011;4991;43.566;27.820;2022-09-12T14:21:06;1.52;;;1.17;;
9904;SDS011;4991;43.566;27.820;2022-09-12T14:23:35;2.45;;;1.20;;
9904;SDS011;4991;43.566;27.820;2022-09-12T14:26:07;3.38;;;1.48;;
9904;SDS011;4991;43.566;27.820;2022-09-12T14:28:38;2.20;;;1.38;;
9904;SDS011;4991;43.566;27.820;2022-09-12T14:33:51;2.40;;;1.33;;
9904;SDS011;4991;43.566;27.820;2022-09-12T14:42:05;1.40;;;1.20;;
9904;SDS011;4991;43.566;27.820;2022-09-12T14:44:55;3.38;;;1.20;;
9904;SDS011;4991;43.566;27.820;2022-09-12T14:47:24;4.75;;;1.40;;
9904;SDS011;4991;43.566;27.820;2022-09-12T14:49:52;3.35;;;1.30;;
9904;SDS011;4991;43.566;27.820;2022-09-12T14:57:43;2.40;;;1.00;;
9904;SDS011;4991;43.566;27.820;2022-09-12T15:02:45;1.10;;;1.00;;
9904;SDS011;4991;43.566;27.820;2022-09-12T15:07:38;1.85;;;1.05;;
9904;SDS011;4991;43.566;27.820;2022-09-12T15:10:19;2.08;;;1.02;;
9904;SDS011;4991;43.566;27.820;2022-09-12T15:15:30;12.40;;;2.30;;
9904;SDS011;4991;43.566;27.820;2022-09-12T15:17:57;4.03;;;1.20;;
9904;SDS011;4991;43.566;27.820;2022-09-12T15:20:23;1.80;;;1.27;;
9904;SDS011;4991;43.566;27.820;2022-09-12T15:22:51;2.28;;;0.98;;
9904;SDS011;4991;43.566;27.820;2022-09-12T15:25:17;1.10;;;0.88;;
9904;SDS011;4991;43.566;27.820;2022-09-12T15:27:44;1.15;;;1.05;;
9904;SDS011;4991;43.566;27.820;2022-09-12T15:30:11;1.60;;;0.93;;
9904;SDS011;4991;43.566;27.820;2022-09-12T15:32:37;1.10;;;1.00;;
9904;SDS011;4991;43.566;27.820;2022-09-12T15:35:15;1.20;;;1.10;;
9904;SDS011;4991;43.566;27.820;2022-09-12T15:37:50;2.90;;;1.67;;
9904;SDS011;4991;43.566;27.820;2022-09-12T15:40:16;3.88;;;1.35;;
9904;SDS011;4991;43.566;27.820;2022-09-12T15:42:44;2.13;;;1.30;;
9904;SDS011;4991;43.566;27.820;2022-09-12T15:47:46;3.78;;;3.25;;
9904;SDS011;4991;43.566;27.820;2022-09-12T15:50:13;6.22;;;5.15;;
9904;SDS011;4991;43.566;27.820;2022-09-12T15:52:40;2.63;;;2.20;;
9904;SDS011;4991;43.566;27.820;2022-09-12T15:55:08;6.78;;;2.35;;
9904;SDS011;4991;43.566;27.820;2022-09-12T15:57:40;3.42;;;2.20;;
9904;SDS011;4991;43.566;27.820;2022-09-12T16:00:07;2.90;;;2.40;;
9904;SDS011;4991;43.566;27.820;2022-09-12T16:02:35;5.87;;;4.60;;
9904;SDS011;4991;43.566;27.820;2022-09-12T16:05:01;8.98;;;4.82;;
9904;SDS011;4991;43.566;27.820;2022-09-12T16:07:26;7.30;;;4.28;;
9904;SDS011;4991;43.566;27.820;2022-09-12T16:09:52;4.60;;;3.33;;
9904;SDS011;4991;43.566;27.820;2022-09-12T16:12:18;3.63;;;2.35;;
9904;SDS011;4991;43.566;27.820;2022-09-12T16:14:43;3.35;;;2.40;;
9904;SDS011;4991;43.566;27.820;2022-09-12T16:17:11;4.00;;;2.00;;
9904;SDS011;4991;43.566;27.820;2022-09-12T16:19:37;5.43;;;2.00;;
9904;SDS011;4991;43.566;27.820;2022-09-12T16:22:05;1.60;;;1.23;;
9904;SDS011;4991;43.566;27.820;2022-09-12T16:24:31;1.70;;;1.50;;
9904;SDS011;4991;43.566;27.820;2022-09-12T16:26:56;3.40;;;1.80;;
9904;SDS011;4991;43.566;27.820;2022-09-12T16:29:22;4.77;;;1.50;;
9904;SDS011;4991;43.566;27.820;2022-09-12T16:31:48;3.40;;;1.50;;
9904;SDS011;4991;43.566;27.820;2022-09-12T16:34:13;3.47;;;2.10;;
9904;SDS011;4991;43.566;27.820;2022-09-12T16:36:39;3.80;;;2.17;;
9904;SDS011;4991;43.566;27.820;2022-09-12T16:39:04;1.60;;;1.50;;
9904;SDS011;4991;43.566;27.820;2022-09-12T16:41:32;3.47;;;1.60;;
9904;SDS011;4991;43.566;27.820;2022-09-12T16:43:58;4.40;;;1.53;;
9904;SDS011;4991;43.566;27.820;2022-09-12T16:46:24;4.07;;;1.60;;
9904;SDS011;4991;43.566;27.820;2022-09-12T16:48:54;4.10;;;1.30;;
9904;SDS011;4991;43.566;27.820;2022-09-12T16:51:23;1.80;;;1.60;;
9904;SDS011;4991;43.566;27.820;2022-09-12T16:53:56;1.60;;;1.50;;
9904;SDS011;4991;43.566;27.820;2022-09-12T16:56:22;5.43;;;1.60;;
9904;SDS011;4991;43.566;27.820;2022-09-12T16:58:48;2.17;;;1.70;;
9904;SDS011;4991;43.566;27.820;2022-09-12T17:01:21;3.00;;;1.70;;
9904;SDS011;4991;43.566;27.820;2022-09-12T17:03:53;3.77;;;2.27;;
9904;SDS011;4991;43.566;27.820;2022-09-12T17:06:22;3.27;;;2.33;;
9904;SDS011;4991;43.566;27.820;2022-09-12T17:08:50;2.17;;;1.80;;
9904;SDS011;4991;43.566;27.820;2022-09-12T17:11:21;4.53;;;3.20;;
9904;SDS011;4991;43.566;27.820;2022-09-12T17:13:52;5.10;;;2.77;;
9904;SDS011;4991;43.566;27.820;2022-09-12T17:16:21;5.07;;;3.87;;
9904;SDS011;4991;43.566;27.820;2022-09-12T17:18:48;3.77;;;2.40;;
9904;SDS011;4991;43.566;27.820;2022-09-12T17:21:15;4.90;;;2.60;;
9904;SDS011;4991;43.566;27.820;2022-09-12T17:23:42;3.60;;;1.80;;
9904;SDS011;4991;43.566;27.820;2022-09-12T17:26:08;2.93;;;2.63;;
9904;SDS011;4991;43.566;27.820;2022-09-12T17:28:35;2.40;;;2.00;;
9904;SDS011;4991;43.566;27.820;2022-09-12T17:31:02;3.90;;;2.73;;
9904;SDS011;4991;43.566;27.820;2022-09-12T17:33:30;4.43;;;1.83;;
9904;SDS011;4991;43.566;27.820;2022-09-12T17:35:59;2.90;;;2.30;;
9904;SDS011;4991;43.566;27.820;2022-09-12T17:38:27;4.93;;;2.33;;
9904;SDS011;4991;43.566;27.820;2022-09-12T17:40:53;4.10;;;2.87;;
9904;SDS011;4991;43.566;27.820;2022-09-12T17:43:19;4.50;;;2.43;;
9904;SDS011;4991;43.566;27.820;2022-09-12T17:45:49;4.07;;;2.53;;
9904;SDS011;4991;43.566;27.820;2022-09-12T17:48:20;5.30;;;3.20;;
9904;SDS011;4991;43.566;27.820;2022-09-12T17:50:46;4.33;;;2.30;;
9904;SDS011;4991;43.566;27.820;2022-09-12T17:53:12;6.23;;;3.10;;
9904;SDS011;4991;43.566;27.820;2022-09-12T17:55:37;4.47;;;3.67;;
9904;SDS011;4991;43.566;27.820;2022-09-12T17:58:03;6.17;;;3.30;;
9904;SDS011;4991;43.566;27.820;2022-09-12T18:00:30;4.50;;;2.97;;
9904;SDS011;4991;43.566;27.820;2022-09-12T18:03:14;6.87;;;3.50;;
9904;SDS011;4991;43.566;27.820;2022-09-12T18:05:44;4.17;;;3.00;;
9904;SDS011;4991;43.566;27.820;2022-09-12T18:08:10;5.10;;;2.83;;
9904;SDS011;4991;43.566;27.820;2022-09-12T18:10:36;4.53;;;3.27;;
9904;SDS011;4991;43.566;27.820;2022-09-12T18:13:02;1.60;;;1.50;;